Site:       
  Group:  
  From:      To:        
   
Sensor Name: Furnace      Latitude:-9.57320000 , Longitude:53.92290000
Please click on the Table Headers to view a Graph of the Observations.
TimeMax. Temp. (°C)Min. Temp. (°C)Mean Temp. (°C)Tot. Rain (mm)Mean Wind (kn)Max Gust (kn)Solar Rad. (J\cm2)Humidity (%)Atmos. Press. (mb)Temp. 5cm (°C)Temp. 10cm (°C)Temp. 20cm (°C)Temp. 30cm (°C)Temp. 50cm (°C)Temp. 100cm (°C)Grass Min. (°C)
01/10/2022 23:00:0012.40 12.00 12.20 0.00 8.90 15.60 0.00 73.70 1009.40 12.00 12.60 13.20 13.60 13.90 14.60 -999.00
01/10/2022 22:00:0012.90 11.70 12.30 0.00 8.30 18.10 0.00 77.70 1008.50 12.20 12.80 13.40 13.60 13.90 14.60 -999.00
01/10/2022 21:00:0012.80 11.90 12.30 0.00 7.00 16.40 0.00 78.30 1007.80 12.40 13.00 13.50 13.70 13.90 14.60 -999.00
01/10/2022 20:00:0012.80 12.10 12.50 0.00 7.90 16.10 0.00 74.40 1007.10 12.70 13.30 13.60 13.70 13.90 14.60 -999.00
01/10/2022 19:00:0012.70 12.40 12.50 0.00 9.50 17.20 0.50 80.20 1006.00 13.10 13.50 13.60 13.70 13.90 14.60 -999.00
01/10/2022 18:00:0013.70 12.60 13.20 0.00 12.20 22.20 15.10 76.90 1004.90 13.50 13.70 13.60 13.70 13.90 14.60 -999.00
01/10/2022 17:00:0014.60 13.60 14.10 0.00 14.90 26.70 33.50 75.40 1004.20 13.90 13.80 13.50 13.60 13.90 14.60 -999.00
01/10/2022 16:00:0014.90 13.90 14.40 0.00 16.50 24.80 99.10 73.40 1003.60 14.00 13.80 13.40 13.60 13.90 14.60 -999.00
01/10/2022 15:00:0014.70 13.00 13.80 0.00 14.80 29.00 117.20 82.20 1003.10 13.90 13.70 13.30 13.50 13.90 14.60 -999.00
01/10/2022 14:00:0015.50 12.20 13.80 1.50 17.00 30.00 103.80 80.60 1002.60 13.70 13.50 13.10 13.50 13.90 14.60 -999.00
01/10/2022 13:00:0015.40 14.40 14.90 0.00 16.70 28.80 118.90 68.40 1002.00 13.50 13.20 13.00 13.40 13.90 14.60 -999.00
01/10/2022 12:00:0015.40 13.50 14.40 0.00 15.60 25.10 129.10 71.80 1001.60 13.10 12.90 12.90 13.40 14.00 14.60 -999.00
01/10/2022 11:00:0014.60 12.80 13.70 0.00 13.00 23.10 100.30 78.20 1000.80 12.70 12.60 12.80 13.40 14.00 14.60 -999.00
01/10/2022 10:00:0013.90 12.20 13.10 0.50 13.80 29.90 56.30 81.80 999.90 12.30 12.40 12.80 13.40 14.00 14.60 -999.00
01/10/2022 09:00:0014.20 12.90 13.50 0.00 11.80 24.40 59.00 80.80 999.00 11.90 12.20 12.80 13.50 14.00 14.60 -999.00
01/10/2022 08:00:0013.00 11.70 12.30 0.00 9.80 19.30 20.70 86.00 998.20 11.70 12.20 12.90 13.50 14.00 14.60 -999.00
01/10/2022 07:00:0012.00 11.40 11.70 0.00 10.30 19.20 0.70 90.60 997.60 11.80 12.30 13.00 13.60 14.00 14.60 -999.00
01/10/2022 06:00:0012.40 11.60 12.00 1.50 11.40 20.30 0.00 89.00 996.80 11.80 12.30 13.10 13.60 14.00 14.60 -999.00
01/10/2022 05:00:0012.10 11.10 11.60 0.00 11.00 20.60 0.00 88.90 996.30 11.90 12.40 13.20 13.70 14.10 14.70 -999.00
01/10/2022 04:00:0011.70 11.00 11.40 0.10 10.10 19.80 0.00 92.30 995.90 12.00 12.50 13.30 13.80 14.10 14.70 -999.00
01/10/2022 03:00:0012.40 11.00 11.70 3.70 14.20 28.40 0.00 90.80 995.40 12.10 12.70 13.40 13.90 14.10 14.70 -999.00
01/10/2022 02:00:0012.20 11.60 11.90 0.00 12.20 22.70 0.00 86.30 995.00 12.20 12.80 13.50 13.90 14.10 14.70 -999.00
01/10/2022 01:00:0011.90 11.00 11.50 0.20 10.30 17.70 0.00 89.70 994.60 12.30 12.90 13.60 14.00 14.10 14.70 -999.00
01/10/2022 00:00:0011.40 10.90 11.20 0.70 8.30 18.20 0.00 90.30 994.50 12.40 13.10 13.80 14.10 14.10 14.70 9.60
30/09/2022 23:00:0012.10 11.10 11.60 0.60 11.50 22.20 0.00 86.00 994.00 12.60 13.30 13.90 14.10 14.10 14.70 9.50
30/09/2022 22:00:0012.30 11.10 11.70 0.40 12.50 24.60 0.00 84.50 993.70 13.00 13.60 14.10 14.20 14.00 14.70 9.30